sensor_id;sensor_type;location;lat;lon;timestamp;pressure;altitude;pressure_sealevel;temperature;humidity
30110;BME280;14965;50.660;13.226;2023-01-25T00:00:39;96563.56;;;-0.96;100.00
30110;BME280;14965;50.660;13.226;2023-01-25T00:03:05;96562.72;;;-0.96;100.00
30110;BME280;14965;50.660;13.226;2023-01-25T00:05:31;96551.88;;;-0.96;100.00
30110;BME280;14965;50.660;13.226;2023-01-25T00:07:57;96557.00;;;-0.95;100.00
30110;BME280;14965;50.660;13.226;2023-01-25T00:10:23;96552.38;;;-0.94;100.00
30110;BME280;14965;50.660;13.226;2023-01-25T00:12:50;96555.53;;;-0.92;100.00
30110;BME280;14965;50.660;13.226;2023-01-25T00:15:16;96555.53;;;-0.92;100.00
30110;BME280;14965;50.660;13.226;2023-01-25T00:17:42;96552.53;;;-0.91;100.00
30110;BME280;14965;50.660;13.226;2023-01-25T00:20:09;96549.66;;;-0.94;100.00
30110;BME280;14965;50.660;13.226;2023-01-25T00:22:35;96547.91;;;-0.99;100.00
30110;BME280;14965;50.660;13.226;2023-01-25T00:25:01;96542.81;;;-1.09;99.94
30110;BME280;14965;50.660;13.226;2023-01-25T00:27:28;96542.34;;;-1.11;100.00
30110;BME280;14965;50.660;13.226;2023-01-25T00:29:55;96539.00;;;-1.08;100.00
30110;BME280;14965;50.660;13.226;2023-01-25T00:32:40;96539.63;;;-1.03;100.00
30110;BME280;14965;50.660;13.226;2023-01-25T00:35:11;96550.13;;;-1.01;100.00
30110;BME280;14965;50.660;13.226;2023-01-25T00:37:42;96549.03;;;-1.00;100.00
30110;BME280;14965;50.660;13.226;2023-01-25T00:40:11;96546.97;;;-1.03;100.00
30110;BME280;14965;50.660;13.226;2023-01-25T00:42:37;96547.28;;;-1.05;100.00
30110;BME280;14965;50.660;13.226;2023-01-25T00:45:05;96549.19;;;-1.05;100.00
30110;BME280;14965;50.660;13.226;2023-01-25T00:47:31;96540.25;;;-1.06;100.00
30110;BME280;14965;50.660;13.226;2023-01-25T00:49:57;96542.19;;;-1.06;100.00
30110;BME280;14965;50.660;13.226;2023-01-25T00:52:23;96543.13;;;-1.02;100.00
30110;BME280;14965;50.660;13.226;2023-01-25T00:54:49;96536.91;;;-1.03;100.00
30110;BME280;14965;50.660;13.226;2023-01-25T00:57:15;96536.44;;;-1.05;100.00
30110;BME280;14965;50.660;13.226;2023-01-25T00:59:41;96542.00;;;-1.01;100.00
30110;BME280;14965;50.660;13.226;2023-01-25T01:02:08;96544.06;;;-0.98;100.00
30110;BME280;14965;50.660;13.226;2023-01-25T01:04:34;96544.56;;;-0.96;100.00
30110;BME280;14965;50.660;13.226;2023-01-25T01:07:00;96553.78;;;-0.97;100.00
30110;BME280;14965;50.660;13.226;2023-01-25T01:09:26;96547.13;;;-0.99;100.00
30110;BME280;14965;50.660;13.226;2023-01-25T01:11:53;96545.22;;;-0.99;100.00
30110;BME280;14965;50.660;13.226;2023-01-25T01:14:20;96551.75;;;-1.00;100.00
30110;BME280;14965;50.660;13.226;2023-01-25T01:16:47;96544.72;;;-1.01;100.00
30110;BME280;14965;50.660;13.226;2023-01-25T01:19:14;96550.81;;;-1.04;100.00
30110;BME280;14965;50.660;13.226;2023-01-25T01:21:40;96553.66;;;-1.09;100.00
30110;BME280;14965;50.660;13.226;2023-01-25T01:24:08;96552.06;;;-1.10;100.00
30110;BME280;14965;50.660;13.226;2023-01-25T01:26:34;96548.13;;;-1.13;100.00
30110;BME280;14965;50.660;13.226;2023-01-25T01:29:00;96551.75;;;-1.09;100.00
30110;BME280;14965;50.660;13.226;2023-01-25T01:31:26;96540.59;;;-1.07;100.00
30110;BME280;14965;50.660;13.226;2023-01-25T01:33:54;96550.31;;;-1.06;100.00
30110;BME280;14965;50.660;13.226;2023-01-25T01:36:25;96543.94;;;-1.10;100.00
30110;BME280;14965;50.660;13.226;2023-01-25T01:38:51;96541.22;;;-1.10;100.00
30110;BME280;14965;50.660;13.226;2023-01-25T01:41:17;96533.72;;;-1.13;100.00
30110;BME280;14965;50.660;13.226;2023-01-25T01:43:44;96532.94;;;-1.14;100.00
30110;BME280;14965;50.660;13.226;2023-01-25T01:46:14;96524.81;;;-1.14;100.00
30110;BME280;14965;50.660;13.226;2023-01-25T01:48:46;96531.69;;;-1.16;100.00
30110;BME280;14965;50.660;13.226;2023-01-25T01:51:22;96522.75;;;-1.17;100.00
30110;BME280;14965;50.660;13.226;2023-01-25T01:53:57;96517.19;;;-1.20;100.00
30110;BME280;14965;50.660;13.226;2023-01-25T01:56:31;96515.91;;;-1.23;100.00
30110;BME280;14965;50.660;13.226;2023-01-25T01:59:02;96519.75;;;-1.24;100.00
30110;BME280;14965;50.660;13.226;2023-01-25T02:01:30;96514.78;;;-1.22;100.00
30110;BME280;14965;50.660;13.226;2023-01-25T02:03:56;96513.34;;;-1.19;100.00
30110;BME280;14965;50.660;13.226;2023-01-25T02:06:44;96509.06;;;-1.20;100.00
30110;BME280;14965;50.660;13.226;2023-01-25T02:09:15;96509.84;;;-1.20;100.00
30110;BME280;14965;50.660;13.226;2023-01-25T02:11:43;96502.84;;;-1.21;100.00
30110;BME280;14965;50.660;13.226;2023-01-25T02:14:09;96504.09;;;-1.18;100.00
30110;BME280;14965;50.660;13.226;2023-01-25T02:16:35;96503.13;;;-1.14;100.00
30110;BME280;14965;50.660;13.226;2023-01-25T02:19:02;96491.63;;;-1.11;100.00
30110;BME280;14965;50.660;13.226;2023-01-25T02:21:36;96486.38;;;-1.07;100.00
30110;BME280;14965;50.660;13.226;2023-01-25T02:24:10;96492.91;;;-1.08;100.00
30110;BME280;14965;50.660;13.226;2023-01-25T02:26:40;96491.00;;;-1.08;100.00
30110;BME280;14965;50.660;13.226;2023-01-25T02:29:07;96488.94;;;-1.11;100.00
30110;BME280;14965;50.660;13.226;2023-01-25T02:31:34;96489.25;;;-1.12;100.00
30110;BME280;14965;50.660;13.226;2023-01-25T02:34:00;96487.53;;;-1.17;100.00
30110;BME280;14965;50.660;13.226;2023-01-25T02:36:28;96481.75;;;-1.15;100.00
30110;BME280;14965;50.660;13.226;2023-01-25T02:38:59;96483.19;;;-1.18;100.00
30110;BME280;14965;50.660;13.226;2023-01-25T02:41:34;96474.75;;;-1.16;100.00
30110;BME280;14965;50.660;13.226;2023-01-25T02:44:07;96480.00;;;-1.11;100.00
30110;BME280;14965;50.660;13.226;2023-01-25T02:46:37;96466.25;;;-1.06;100.00
30110;BME280;14965;50.660;13.226;2023-01-25T02:49:05;96471.50;;;-1.01;100.00
30110;BME280;14965;50.660;13.226;2023-01-25T02:51:38;96465.28;;;-1.02;100.00
30110;BME280;14965;50.660;13.226;2023-01-25T02:54:08;96462.13;;;-1.04;100.00
30110;BME280;14965;50.660;13.226;2023-01-25T02:56:35;96463.06;;;-0.99;100.00
30110;BME280;14965;50.660;13.226;2023-01-25T02:59:03;96457.94;;;-1.01;100.00
30110;BME280;14965;50.660;13.226;2023-01-25T03:01:28;96448.03;;;-0.97;100.00
30110;BME280;14965;50.660;13.226;2023-01-25T03:03:54;96451.25;;;-0.95;100.00
30110;BME280;14965;50.660;13.226;2023-01-25T03:06:20;96445.63;;;-0.90;100.00
30110;BME280;14965;50.660;13.226;2023-01-25T03:08:46;96439.41;;;-0.90;100.00
30110;BME280;14965;50.660;13.226;2023-01-25T03:11:12;96441.19;;;-0.94;100.00
30110;BME280;14965;50.660;13.226;2023-01-25T03:13:38;96436.56;;;-0.94;100.00
30110;BME280;14965;50.660;13.226;2023-01-25T03:16:08;96438.13;;;-0.93;100.00
30110;BME280;14965;50.660;13.226;2023-01-25T03:18:35;96425.38;;;-0.92;100.00
30110;BME280;14965;50.660;13.226;2023-01-25T03:21:07;96430.94;;;-0.89;100.00
30110;BME280;14965;50.660;13.226;2023-01-25T03:23:33;96423.00;;;-0.94;100.00
30110;BME280;14965;50.660;13.226;2023-01-25T03:26:08;96424.91;;;-0.94;100.00
30110;BME280;14965;50.660;13.226;2023-01-25T03:28:35;96418.22;;;-0.97;100.00
30110;BME280;14965;50.660;13.226;2023-01-25T03:31:02;96421.59;;;-1.00;100.00
30110;BME280;14965;50.660;13.226;2023-01-25T03:33:29;96415.34;;;-1.01;100.00
30110;BME280;14965;50.660;13.226;2023-01-25T03:35:56;96411.22;;;-0.98;100.00
30110;BME280;14965;50.660;13.226;2023-01-25T03:38:22;96408.31;;;-0.93;100.00
30110;BME280;14965;50.660;13.226;2023-01-25T03:40:48;96405.09;;;-0.86;100.00
30110;BME280;14965;50.660;13.226;2023-01-25T03:43:15;96397.88;;;-0.82;100.00
30110;BME280;14965;50.660;13.226;2023-01-25T03:45:41;96401.41;;;-0.82;100.00
30110;BME280;14965;50.660;13.226;2023-01-25T03:48:07;96397.88;;;-0.82;100.00
30110;BME280;14965;50.660;13.226;2023-01-25T03:50:34;96395.19;;;-0.82;100.00
30110;BME280;14965;50.660;13.226;2023-01-25T03:53:00;96402.53;;;-0.83;100.00
30110;BME280;14965;50.660;13.226;2023-01-25T03:55:26;96397.56;;;-0.81;100.00
30110;BME280;14965;50.660;13.226;2023-01-25T03:57:52;96400.59;;;-0.82;100.00
30110;BME280;14965;50.660;13.226;2023-01-25T04:00:18;96403.78;;;-0.80;100.00
30110;BME280;14965;50.660;13.226;2023-01-25T04:02:44;96392.13;;;-0.81;100.00
30110;BME280;14965;50.660;13.226;2023-01-25T04:05:10;96393.72;;;-0.80;100.00
30110;BME280;14965;50.660;13.226;2023-01-25T04:07:38;96384.47;;;-0.79;100.00
30110;BME280;14965;50.660;13.226;2023-01-25T04:10:05;96389.91;;;-0.79;100.00
30110;BME280;14965;50.660;13.226;2023-01-25T04:12:31;96392.91;;;-0.80;100.00
30110;BME280;14965;50.660;13.226;2023-01-25T04:14:57;96394.38;;;-0.83;100.00
30110;BME280;14965;50.660;13.226;2023-01-25T04:17:23;96381.13;;;-0.84;100.00
30110;BME280;14965;50.660;13.226;2023-01-25T04:19:49;96385.31;;;-0.87;100.00
30110;BME280;14965;50.660;13.226;2023-01-25T04:22:15;96385.78;;;-0.85;100.00
30110;BME280;14965;50.660;13.226;2023-01-25T04:24:42;96386.75;;;-0.89;100.00
30110;BME280;14965;50.660;13.226;2023-01-25T04:27:09;96390.00;;;-0.96;100.00
30110;BME280;14965;50.660;13.226;2023-01-25T04:29:35;96389.66;;;-0.94;100.00
30110;BME280;14965;50.660;13.226;2023-01-25T04:32:01;96376.56;;;-0.92;100.00
30110;BME280;14965;50.660;13.226;2023-01-25T04:34:27;96380.53;;;-0.90;100.00
30110;BME280;14965;50.660;13.226;2023-01-25T04:36:53;96382.25;;;-0.85;100.00
30110;BME280;14965;50.660;13.226;2023-01-25T04:39:19;96383.53;;;-0.83;100.00
30110;BME280;14965;50.660;13.226;2023-01-25T04:41:46;96382.41;;;-0.82;100.00
30110;BME280;14965;50.660;13.226;2023-01-25T04:44:12;96385.13;;;-0.82;100.00
30110;BME280;14965;50.660;13.226;2023-01-25T04:46:38;96388.63;;;-0.81;100.00
30110;BME280;14965;50.660;13.226;2023-01-25T04:49:04;96382.41;;;-0.82;100.00
30110;BME280;14965;50.660;13.226;2023-01-25T04:51:30;96389.75;;;-0.82;100.00
30110;BME280;14965;50.660;13.226;2023-01-25T04:53:56;96385.47;;;-0.83;100.00
30110;BME280;14965;50.660;13.226;2023-01-25T04:56:22;96393.25;;;-0.82;100.00
30110;BME280;14965;50.660;13.226;2023-01-25T04:58:49;96389.41;;;-0.81;100.00
30110;BME280;14965;50.660;13.226;2023-01-25T05:01:14;96382.84;;;-0.80;100.00
30110;BME280;14965;50.660;13.226;2023-01-25T05:03:40;96392.97;;;-0.89;99.61
30110;BME280;14965;50.660;13.226;2023-01-25T05:06:06;96398.59;;;-0.94;100.00
30110;BME280;14965;50.660;13.226;2023-01-25T05:08:32;96398.13;;;-0.96;99.69
30110;BME280;14965;50.660;13.226;2023-01-25T05:10:58;96404.34;;;-0.95;100.00
30110;BME280;14965;50.660;13.226;2023-01-25T05:13:24;96390.00;;;-0.96;100.00
30110;BME280;14965;50.660;13.226;2023-01-25T05:15:51;96389.31;;;-0.93;100.00
30110;BME280;14965;50.660;13.226;2023-01-25T05:18:17;96383.09;;;-0.93;99.96
30110;BME280;14965;50.660;13.226;2023-01-25T05:20:43;96385.06;;;-1.03;99.95
30110;BME280;14965;50.660;13.226;2023-01-25T05:23:09;96384.28;;;-1.03;99.88
30110;BME280;14965;50.660;13.226;2023-01-25T05:25:34;96384.59;;;-1.05;99.81
30110;BME280;14965;50.660;13.226;2023-01-25T05:28:03;96378.22;;;-1.09;99.49
30110;BME280;14965;50.660;13.226;2023-01-25T05:30:29;96378.56;;;-1.10;100.00
30110;BME280;14965;50.660;13.226;2023-01-25T05:32:56;96380.94;;;-1.09;100.00
30110;BME280;14965;50.660;13.226;2023-01-25T05:35:22;96371.38;;;-1.06;100.00
30110;BME280;14965;50.660;13.226;2023-01-25T05:37:48;96375.00;;;-1.02;100.00
30110;BME280;14965;50.660;13.226;2023-01-25T05:40:14;96372.44;;;-0.98;100.00
30110;BME280;14965;50.660;13.226;2023-01-25T05:42:40;96368.31;;;-0.96;99.97
30110;BME280;14965;50.660;13.226;2023-01-25T05:45:08;96362.19;;;-0.93;100.00
30110;BME280;14965;50.660;13.226;2023-01-25T05:47:34;96362.34;;;-0.89;100.00
30110;BME280;14965;50.660;13.226;2023-01-25T05:50:02;96359.31;;;-0.88;100.00
30110;BME280;14965;50.660;13.226;2023-01-25T05:52:28;96360.56;;;-0.85;100.00
30110;BME280;14965;50.660;13.226;2023-01-25T05:54:54;96357.84;;;-0.85;100.00
30110;BME280;14965;50.660;13.226;2023-01-25T05:57:19;96349.38;;;-0.84;100.00
30110;BME280;14965;50.660;13.226;2023-01-25T05:59:45;96351.28;;;-0.84;100.00
30110;BME280;14965;50.660;13.226;2023-01-25T06:02:11;96356.72;;;-0.84;99.94
30110;BME280;14965;50.660;13.226;2023-01-25T06:04:37;96356.72;;;-0.84;100.00
30110;BME280;14965;50.660;13.226;2023-01-25T06:07:04;96351.00;;;-0.83;100.00
30110;BME280;14965;50.660;13.226;2023-01-25T06:09:30;96353.38;;;-0.81;99.96
30110;BME280;14965;50.660;13.226;2023-01-25T06:11:56;96352.56;;;-0.82;99.90
30110;BME280;14965;50.660;13.226;2023-01-25T06:14:22;96348.28;;;-0.83;99.74
30110;BME280;14965;50.660;13.226;2023-01-25T06:16:47;96353.38;;;-0.81;99.80
30110;BME280;14965;50.660;13.226;2023-01-25T06:19:14;96350.66;;;-0.81;99.69
30110;BME280;14965;50.660;13.226;2023-01-25T06:21:39;96349.06;;;-0.82;99.83
30110;BME280;14965;50.660;13.226;2023-01-25T06:24:07;96358.78;;;-0.81;99.88
30110;BME280;14965;50.660;13.226;2023-01-25T06:26:33;96364.06;;;-0.85;99.88
30110;BME280;14965;50.660;13.226;2023-01-25T06:28:59;96360.91;;;-0.87;99.72
30110;BME280;14965;50.660;13.226;2023-01-25T06:31:25;96362.94;;;-0.84;99.75
30110;BME280;14965;50.660;13.226;2023-01-25T06:33:51;96368.38;;;-0.84;99.85
30110;BME280;14965;50.660;13.226;2023-01-25T06:36:19;96358.66;;;-0.85;99.72
30110;BME280;14965;50.660;13.226;2023-01-25T06:38:47;96356.72;;;-0.84;99.73
30110;BME280;14965;50.660;13.226;2023-01-25T06:41:15;96358.38;;;-0.92;99.47
30110;BME280;14965;50.660;13.226;2023-01-25T06:43:40;96361.41;;;-0.93;99.68
30110;BME280;14965;50.660;13.226;2023-01-25T06:46:09;96354.06;;;-0.93;99.88
30110;BME280;14965;50.660;13.226;2023-01-25T06:48:35;96357.25;;;-0.91;99.72
30110;BME280;14965;50.660;13.226;2023-01-25T06:51:04;96350.63;;;-1.02;99.13
30110;BME280;14965;50.660;13.226;2023-01-25T06:53:33;96351.44;;;-1.10;99.23
30110;BME280;14965;50.660;13.226;2023-01-25T06:56:01;96358.66;;;-1.14;99.37
30110;BME280;14965;50.660;13.226;2023-01-25T06:58:44;96352.59;;;-1.11;99.32
30110;BME280;14965;50.660;13.226;2023-01-25T07:01:14;96345.03;;;-1.06;99.62
30110;BME280;14965;50.660;13.226;2023-01-25T07:03:41;96346.97;;;-1.06;99.52
30110;BME280;14965;50.660;13.226;2023-01-25T07:06:09;96349.22;;;-1.08;99.34
30110;BME280;14965;50.660;13.226;2023-01-25T07:08:36;96351.13;;;-1.09;99.43
30110;BME280;14965;50.660;13.226;2023-01-25T07:11:05;96343.13;;;-1.05;99.37
30110;BME280;14965;50.660;13.226;2023-01-25T07:13:33;96345.69;;;-1.00;99.41
30110;BME280;14965;50.660;13.226;2023-01-25T07:16:02;96356.31;;;-0.95;99.33
30110;BME280;14965;50.660;13.226;2023-01-25T07:18:31;96343.34;;;-0.89;99.37
30110;BME280;14965;50.660;13.226;2023-01-25T07:21:02;96350.19;;;-0.83;99.47
30110;BME280;14965;50.660;13.226;2023-01-25T07:23:30;96342.19;;;-0.80;99.39
30110;BME280;14965;50.660;13.226;2023-01-25T07:25:56;96334.19;;;-0.76;99.35
30110;BME280;14965;50.660;13.226;2023-01-25T07:28:22;96329.22;;;-0.74;99.42
30110;BME280;14965;50.660;13.226;2023-01-25T07:30:48;96332.09;;;-0.70;99.31
30110;BME280;14965;50.660;13.226;2023-01-25T07:33:15;96330.94;;;-0.69;99.26
30110;BME280;14965;50.660;13.226;2023-01-25T07:35:41;96319.31;;;-0.70;98.90
30110;BME280;14965;50.660;13.226;2023-01-25T07:38:08;96329.03;;;-0.69;98.99
30110;BME280;14965;50.660;13.226;2023-01-25T07:40:34;96329.50;;;-0.67;98.72
30110;BME280;14965;50.660;13.226;2023-01-25T07:43:00;96321.03;;;-0.65;98.55
30110;BME280;14965;50.660;13.226;2023-01-25T07:45:27;96321.47;;;-0.63;98.25
30110;BME280;14965;50.660;13.226;2023-01-25T07:47:52;96314.94;;;-0.62;98.55
30110;BME280;14965;50.660;13.226;2023-01-25T07:50:20;96309.19;;;-0.61;98.46
30110;BME280;14965;50.660;13.226;2023-01-25T07:52:45;96310.09;;;-0.57;98.54
30110;BME280;14965;50.660;13.226;2023-01-25T07:55:11;96313.28;;;-0.55;98.85
30110;BME280;14965;50.660;13.226;2023-01-25T07:57:37;96308.66;;;-0.54;98.42
30110;BME280;14965;50.660;13.226;2023-01-25T08:00:04;96302.91;;;-0.53;98.46
30110;BME280;14965;50.660;13.226;2023-01-25T08:02:30;96305.75;;;-0.49;98.60
30110;BME280;14965;50.660;13.226;2023-01-25T08:04:55;96302.38;;;-0.46;98.50
30110;BME280;14965;50.660;13.226;2023-01-25T08:07:23;96305.19;;;-0.42;98.13
30110;BME280;14965;50.660;13.226;2023-01-25T08:09:48;96307.59;;;-0.41;98.13
30110;BME280;14965;50.660;13.226;2023-01-25T08:12:14;96304.19;;;-0.38;98.04
30110;BME280;14965;50.660;13.226;2023-01-25T08:14:40;96295.88;;;-0.33;98.16
30110;BME280;14965;50.660;13.226;2023-01-25T08:17:06;96293.59;;;-0.31;98.30
30110;BME280;14965;50.660;13.226;2023-01-25T08:19:32;96291.81;;;-0.27;98.18
30110;BME280;14965;50.660;13.226;2023-01-25T08:21:58;96285.59;;;-0.27;97.52
30110;BME280;14965;50.660;13.226;2023-01-25T08:24:25;96283.34;;;-0.25;97.65
30110;BME280;14965;50.660;13.226;2023-01-25T08:26:50;96280.28;;;-0.23;97.19
30110;BME280;14965;50.660;13.226;2023-01-25T08:29:17;96283.44;;;-0.21;96.75
30110;BME280;14965;50.660;13.226;2023-01-25T08:31:42;96267.63;;;-0.19;96.96
30110;BME280;14965;50.660;13.226;2023-01-25T08:34:09;96269.69;;;-0.16;96.41
30110;BME280;14965;50.660;13.226;2023-01-25T08:36:35;96269.69;;;-0.16;96.34
30110;BME280;14965;50.660;13.226;2023-01-25T08:39:04;96262.78;;;-0.14;96.23
30110;BME280;14965;50.660;13.226;2023-01-25T08:41:34;96261.75;;;-0.09;96.04
30110;BME280;14965;50.660;13.226;2023-01-25T08:44:00;96253.75;;;-0.06;95.94
30110;BME280;14965;50.660;13.226;2023-01-25T08:46:29;96252.72;;;-0.01;96.27
30110;BME280;14965;50.660;13.226;2023-01-25T08:48:56;96253.66;;;0.03;95.35
30110;BME280;14965;50.660;13.226;2023-01-25T08:51:24;96242.91;;;0.07;95.50
30110;BME280;14965;50.660;13.226;2023-01-25T08:53:50;96244.59;;;0.11;95.72
30110;BME280;14965;50.660;13.226;2023-01-25T08:56:16;96250.94;;;0.15;95.22
30110;BME280;14965;50.660;13.226;2023-01-25T08:58:46;96242.59;;;0.20;95.17
30110;BME280;14965;50.660;13.226;2023-01-25T09:01:15;96242.38;;;0.26;94.88
30110;BME280;14965;50.660;13.226;2023-01-25T09:03:43;96238.97;;;0.29;94.57
30110;BME280;14965;50.660;13.226;2023-01-25T09:06:11;96236.72;;;0.31;93.72
30110;BME280;14965;50.660;13.226;2023-01-25T09:08:37;96242.59;;;0.33;93.85
30110;BME280;14965;50.660;13.226;2023-01-25T09:11:06;96236.50;;;0.36;93.50
30110;BME280;14965;50.660;13.226;2023-01-25T09:13:32;96230.63;;;0.34;93.26
30110;BME280;14965;50.660;13.226;2023-01-25T09:16:00;96230.81;;;0.41;93.33
30110;BME280;14965;50.660;13.226;2023-01-25T09:18:42;96225.38;;;0.41;92.74
30110;BME280;14965;50.660;13.226;2023-01-25T09:21:28;96220.53;;;0.46;92.83
30110;BME280;14965;50.660;13.226;2023-01-25T09:24:18;96221.53;;;0.54;93.13
30110;BME280;14965;50.660;13.226;2023-01-25T09:27:37;96220.97;;;0.61;92.96
30110;BME280;14965;50.660;13.226;2023-01-25T09:33:53;96212.59;;;0.66;92.17
30110;BME280;14965;50.660;13.226;2023-01-25T09:36:20;96212.34;;;0.71;91.91
30110;BME280;14965;50.660;13.226;2023-01-25T09:38:48;96211.34;;;0.76;91.05
30110;BME280;14965;50.660;13.226;2023-01-25T09:41:34;96213.16;;;0.84;91.38
30110;BME280;14965;50.660;13.226;2023-01-25T09:44:37;96208.78;;;0.95;91.11
30110;BME280;14965;50.660;13.226;2023-01-25T09:47:18;96207.75;;;0.99;90.58
30110;BME280;14965;50.660;13.226;2023-01-25T09:50:32;96208.56;;;1.00;89.98
30110;BME280;14965;50.660;13.226;2023-01-25T09:53:28;96207.19;;;1.06;89.78
30110;BME280;14965;50.660;13.226;2023-01-25T09:55:59;96198.88;;;1.15;89.84
30110;BME280;14965;50.660;13.226;2023-01-25T09:58:35;96205.66;;;1.21;89.39
30110;BME280;14965;50.660;13.226;2023-01-25T10:01:19;96208.94;;;1.27;89.45
30110;BME280;14965;50.660;13.226;2023-01-25T10:04:00;96208.94;;;1.27;88.52
30110;BME280;14965;50.660;13.226;2023-01-25T10:06:37;96215.97;;;1.28;88.32
30110;BME280;14965;50.660;13.226;2023-01-25T10:09:23;96207.72;;;1.12;87.34
30110;BME280;14965;50.660;13.226;2023-01-25T10:11:55;96216.53;;;0.93;87.13
30110;BME280;14965;50.660;13.226;2023-01-25T10:14:25;96217.41;;;0.97;88.17
30110;BME280;14965;50.660;13.226;2023-01-25T10:17:03;96214.47;;;1.02;88.07
30110;BME280;14965;50.660;13.226;2023-01-25T10:19:48;96208.34;;;0.93;87.22
30110;BME280;14965;50.660;13.226;2023-01-25T10:22:22;96204.75;;;0.89;87.17
30110;BME280;14965;50.660;13.226;2023-01-25T10:25:18;96203.81;;;0.97;87.80
30110;BME280;14965;50.660;13.226;2023-01-25T10:28:12;96202.53;;;1.07;87.67
30110;BME280;14965;50.660;13.226;2023-01-25T10:30:49;96197.66;;;1.00;86.80
30110;BME280;14965;50.660;13.226;2023-01-25T10:33:19;96194.91;;;0.72;87.24
30110;BME280;14965;50.660;13.226;2023-01-25T10:35:47;96189.81;;;0.58;87.19
30110;BME280;14965;50.660;13.226;2023-01-25T10:38:22;96186.91;;;0.51;88.50
30110;BME280;14965;50.660;13.226;2023-01-25T10:40:57;96183.94;;;0.56;88.31
30110;BME280;14965;50.660;13.226;2023-01-25T10:43:25;96177.47;;;0.73;89.34
30110;BME280;14965;50.660;13.226;2023-01-25T10:45:50;96170.97;;;0.90;89.05
30110;BME280;14965;50.660;13.226;2023-01-25T10:48:20;96169.00;;;1.03;88.77
30110;BME280;14965;50.660;13.226;2023-01-25T10:50:53;96166.13;;;1.11;88.26
30110;BME280;14965;50.660;13.226;2023-01-25T10:53:26;96157.72;;;1.16;88.36
30110;BME280;14965;50.660;13.226;2023-01-25T10:56:12;96158.03;;;1.27;88.49
30110;BME280;14965;50.660;13.226;2023-01-25T10:58:42;96168.06;;;1.39;87.67
30110;BME280;14965;50.660;13.226;2023-01-25T11:01:13;96154.91;;;1.41;87.93
30110;BME280;14965;50.660;13.226;2023-01-25T11:03:49;96156.72;;;1.37;87.40
30110;BME280;14965;50.660;13.226;2023-01-25T11:06:30;96155.59;;;1.38;87.97
30110;BME280;14965;50.660;13.226;2023-01-25T11:08:58;96153.31;;;1.40;87.66
30110;BME280;14965;50.660;13.226;2023-01-25T11:11:31;96146.41;;;1.42;87.72
30110;BME280;14965;50.660;13.226;2023-01-25T11:13:57;96134.78;;;1.45;88.13
30110;BME280;14965;50.660;13.226;2023-01-25T11:16:33;96141.91;;;1.50;87.51
30110;BME280;14965;50.660;13.226;2023-01-25T11:19:02;96134.19;;;1.52;87.49
30110;BME280;14965;50.660;13.226;2023-01-25T11:21:51;96131.47;;;1.52;87.82
30110;BME280;14965;50.660;13.226;2023-01-25T11:24:19;96131.56;;;1.56;88.15
30110;BME280;14965;50.660;13.226;2023-01-25T11:26:45;96120.78;;;1.59;87.95
30110;BME280;14965;50.660;13.226;2023-01-25T11:29:15;96112.69;;;1.63;87.25
30110;BME280;14965;50.660;13.226;2023-01-25T11:31:44;96117.00;;;1.64;87.34
30110;BME280;14965;50.660;13.226;2023-01-25T11:34:12;96113.94;;;1.65;87.07
30110;BME280;14965;50.660;13.226;2023-01-25T11:36:56;96102.16;;;1.61;87.39
30110;BME280;14965;50.660;13.226;2023-01-25T11:39:44;96097.41;;;1.58;87.24
30110;BME280;14965;50.660;13.226;2023-01-25T11:42:28;96099.59;;;1.53;87.14
30110;BME280;14965;50.660;13.226;2023-01-25T11:45:35;96092.75;;;1.43;87.86
30110;BME280;14965;50.660;13.226;2023-01-25T11:48:29;96080.19;;;1.38;87.70
30110;BME280;14965;50.660;13.226;2023-01-25T11:51:05;96081.66;;;1.36;88.06
30110;BME280;14965;50.660;13.226;2023-01-25T11:53:49;96067.97;;;1.32;88.08
30110;BME280;14965;50.660;13.226;2023-01-25T11:56:34;96065.69;;;1.34;88.72
30110;BME280;14965;50.660;13.226;2023-01-25T11:59:22;96059.69;;;1.29;88.02
30110;BME280;14965;50.660;13.226;2023-01-25T12:02:08;96056.44;;;1.23;88.16
30110;BME280;14965;50.660;13.226;2023-01-25T12:05:15;96051.00;;;1.23;89.04
30110;BME280;14965;50.660;13.226;2023-01-25T12:07:58;96045.56;;;1.23;89.16
30110;BME280;14965;50.660;13.226;2023-01-25T12:10:39;96032.75;;;1.23;89.22
30110;BME280;14965;50.660;13.226;2023-01-25T12:13:20;96028.88;;;1.24;88.90
30110;BME280;14965;50.660;13.226;2023-01-25T12:16:18;96024.22;;;1.25;89.04
30110;BME280;14965;50.660;13.226;2023-01-25T12:19:17;96014.16;;;1.26;88.66
30110;BME280;14965;50.660;13.226;2023-01-25T12:22:15;96020.47;;;1.30;89.14
30110;BME280;14965;50.660;13.226;2023-01-25T12:24:55;96007.41;;;1.35;88.72
30110;BME280;14965;50.660;13.226;2023-01-25T12:27:47;96005.88;;;1.38;89.32
30110;BME280;14965;50.660;13.226;2023-01-25T12:30:25;96005.97;;;1.41;89.28
30110;BME280;14965;50.660;13.226;2023-01-25T12:33:08;96010.38;;;1.46;89.07
30110;BME280;14965;50.660;13.226;2023-01-25T12:35:41;95996.41;;;1.47;89.10
30110;BME280;14965;50.660;13.226;2023-01-25T12:38:21;95994.84;;;1.46;88.46
30110;BME280;14965;50.660;13.226;2023-01-25T12:40:54;95998.44;;;1.35;87.73
30110;BME280;14965;50.660;13.226;2023-01-25T12:43:29;95990.09;;;1.12;87.41
30110;BME280;14965;50.660;13.226;2023-01-25T12:46:13;95985.94;;;0.86;88.00
30110;BME280;14965;50.660;13.226;2023-01-25T12:48:46;95982.06;;;0.87;88.39
30110;BME280;14965;50.660;13.226;2023-01-25T12:51:15;95986.38;;;0.88;88.57
30110;BME280;14965;50.660;13.226;2023-01-25T12:53:46;95978.47;;;0.83;88.70
30110;BME280;14965;50.660;13.226;2023-01-25T12:56:31;95973.09;;;0.71;88.51
30110;BME280;14965;50.660;13.226;2023-01-25T12:59:14;95977.56;;;0.63;88.95
30110;BME280;14965;50.660;13.226;2023-01-25T13:01:50;95964.75;;;0.64;88.92
30110;BME280;14965;50.660;13.226;2023-01-25T13:04:43;95958.00;;;0.73;90.12
30110;BME280;14965;50.660;13.226;2023-01-25T13:07:25;95957.16;;;0.85;90.52
30110;BME280;14965;50.660;13.226;2023-01-25T13:10:00;95951.81;;;0.89;90.47